Aquadale, North Carolina
Current Conditions -  °F | °C
As of 9:35 AM on Thursday 27 Nov 2014 (Local Time) from KVUJ Reporting Station
Scattered Clouds Scattered Clouds  
Wind Chill:   Ceiling: Unl
Heat Index:   Visibility: 10mi
Dew Point:   Wind: 7mph
Humidity: 79%   Direction: 310°NW
Pressure: 30.07"   Gusts: 17mph
Location:  35.2152°N, 80.1663°W
Report Text: KVUJ 271435Z AUTO 31006G15KT 10SM SCT017 07/03 A3007 RMK AO2 T00680034
Loading
Personal Weather Stations






























Interactive Weather Map New forecast layout! Learn more

10-Day Weather Forecast

Advertisements
Track Severe Weather on mobile